Time;durP1;ratioP1;P1;durP2;ratioP2;P2;SDS_P1;SDS_P2;PMS_P1;PMS_P2;Temp;Humidity;BMP_temperature;BMP_pressure;BME280_temperature;BME280_humidity;BME280_pressure;Samples;Min_cycle;Max_cycle;Signal;HPM_P1;HPM_P2
2022/07/21 00:00:30;;;;;;;23.10;15.13;;;18.90;99.90;;;;;;5049896;28;20792;-69
2022/07/21 00:02:56;;;;;;;20.52;14.10;;;19.00;99.90;;;;;;5049614;28;20121;-68
2022/07/21 00:05:23;;;;;;;21.67;15.23;;;18.90;99.90;;;;;;5032072;28;20048;-66
2022/07/21 00:07:49;;;;;;;23.48;16.17;;;18.80;99.90;;;;;;5050917;28;20467;-66
2022/07/21 00:10:15;;;;;;;23.83;14.88;;;18.80;99.90;;;;;;5032935;28;20017;-69
2022/07/21 00:12:41;;;;;;;22.92;16.60;;;18.80;99.90;;;;;;5031900;28;20029;-66
2022/07/21 00:15:09;;;;;;;30.63;16.73;;;18.70;99.90;;;;;;5050458;28;20033;-67
2022/07/21 00:17:35;;;;;;;20.73;14.73;;;18.70;99.90;;;;;;5046911;28;20454;-67
2022/07/21 00:20:01;;;;;;;21.48;16.48;;;18.70;99.90;;;;;;5032794;28;20029;-67
2022/07/21 00:22:27;;;;;;;24.65;16.33;;;18.80;99.90;;;;;;5049672;28;20021;-67
2022/07/21 00:24:53;;;;;;;25.83;18.00;;;18.90;99.90;;;;;;5015615;28;20059;-67
2022/07/21 00:27:18;;;;;;;30.55;16.63;;;18.90;99.90;;;;;;5049175;28;20544;-67
2022/07/21 00:29:44;;;;;;;20.67;15.18;;;18.90;99.90;;;;;;5049371;28;20033;-68
2022/07/21 00:32:10;;;;;;;22.38;14.70;;;18.80;99.90;;;;;;5049196;28;20029;-67
2022/07/21 00:34:35;;;;;;;25.42;15.20;;;18.80;99.90;;;;;;5030997;28;20029;-70
2022/07/21 00:37:01;;;;;;;27.30;18.15;;;18.90;99.90;;;;;;5046790;28;20505;-67
2022/07/21 00:39:26;;;;;;;26.00;17.67;;;18.90;99.90;;;;;;5049522;28;20025;-70
2022/07/21 00:41:52;;;;;;;28.45;16.75;;;18.70;99.90;;;;;;5049197;28;20570;-67
2022/07/21 00:44:26;;;;;;;24.40;16.17;;;18.80;99.90;;;;;;5049119;28;20036;-67
2022/07/21 00:46:53;;;;;;;23.83;17.27;;;18.80;99.90;;;;;;5031294;28;20057;-70
2022/07/21 00:49:19;;;;;;;26.20;17.17;;;18.80;99.90;;;;;;5049194;28;20041;-70
2022/07/21 00:51:46;;;;;;;28.52;18.52;;;18.80;99.90;;;;;;5049166;28;20066;-70
2022/07/21 00:54:14;;;;;;;32.15;19.45;;;18.90;99.90;;;;;;5029661;28;20068;-68
2022/07/21 00:56:39;;;;;;;25.70;15.82;;;18.80;99.90;;;;;;5048550;28;20036;-71
2022/07/21 00:59:05;;;;;;;21.77;16.55;;;18.80;99.90;;;;;;5049098;28;20024;-66
2022/07/21 01:01:31;;;;;;;28.98;17.67;;;18.80;99.90;;;;;;5031000;28;20162;-67
2022/07/21 01:03:56;;;;;;;28.30;17.90;;;18.70;99.90;;;;;;5014430;28;20108;-68
2022/07/21 01:06:25;;;;;;;30.70;18.73;;;18.70;99.90;;;;;;5047688;28;20033;-67
2022/07/21 01:08:51;;;;;;;29.42;17.63;;;18.70;99.90;;;;;;5014718;28;20039;-71
2022/07/21 01:11:18;;;;;;;27.42;19.17;;;18.70;99.90;;;;;;5030556;28;20126;-71
2022/07/21 01:13:44;;;;;;;30.48;19.80;;;18.80;99.90;;;;;;5048399;28;20028;-68
2022/07/21 01:16:10;;;;;;;34.00;20.52;;;18.80;99.90;;;;;;5048793;28;20058;-67
2022/07/21 01:18:37;;;;;;;25.52;19.02;;;18.80;99.90;;;;;;5049796;28;20039;-68
2022/07/21 01:21:26;;;;;;;34.10;20.73;;;18.80;99.90;;;;;;5048845;28;20044;-67
2022/07/21 01:23:51;;;;;;;29.83;19.88;;;18.80;99.90;;;;;;5047713;28;20504;-67
2022/07/21 01:26:17;;;;;;;33.33;20.33;;;18.80;99.90;;;;;;5048083;28;20037;-68
2022/07/21 01:28:42;;;;;;;34.42;22.23;;;18.70;99.90;;;;;;5031934;28;20098;-68
2022/07/21 01:31:08;;;;;;;38.40;23.27;;;18.80;99.90;;;;;;5048315;28;20029;-69
2022/07/21 01:33:33;;;;;;;33.30;21.20;;;18.70;99.90;;;;;;5049006;28;20021;-67
2022/07/21 01:35:59;;;;;;;36.70;23.52;;;18.70;99.90;;;;;;5031710;28;20025;-67
2022/07/21 01:43:52;;;;;;;35.60;23.30;;;18.60;99.90;;;;;;5049276;28;20044;-66
2022/07/21 01:46:18;;;;;;;39.53;23.80;;;18.50;99.90;;;;;;5048139;28;20029;-67
2022/07/21 01:48:45;;;;;;;32.42;23.33;;;18.60;99.90;;;;;;5048969;28;20036;-66
2022/07/21 01:51:11;;;;;;;38.97;23.42;;;18.60;99.90;;;;;;5002646;28;20029;-67
2022/07/21 01:53:37;;;;;;;37.58;24.50;;;18.60;99.90;;;;;;5047499;28;20102;-66
2022/07/21 01:56:03;;;;;;;37.60;24.10;;;18.70;99.90;;;;;;5029996;28;20033;-69
2022/07/21 01:58:30;;;;;;;36.40;23.85;;;18.60;99.90;;;;;;5028764;28;20033;-67
2022/07/21 02:00:55;;;;;;;37.60;24.85;;;18.60;99.90;;;;;;5030330;28;20075;-67
2022/07/21 02:03:21;;;;;;;31.55;23.33;;;18.60;99.90;;;;;;5048255;28;20028;-67
2022/07/21 02:05:46;;;;;;;39.70;23.52;;;18.60;99.90;;;;;;5049130;28;20108;-67
2022/07/21 02:08:12;;;;;;;43.33;25.17;;;18.60;99.90;;;;;;5030067;28;20171;-66
2022/07/21 02:10:38;;;;;;;30.05;20.98;;;18.60;99.90;;;;;;5030136;28;20029;-67
2022/07/21 02:13:03;;;;;;;35.03;23.52;;;18.60;99.90;;;;;;5049474;28;20053;-67
2022/07/21 02:15:29;;;;;;;33.78;22.83;;;18.70;99.90;;;;;;5047561;28;20123;-69
2022/07/21 02:17:55;;;;;;;36.42;23.33;;;18.60;99.90;;;;;;5050735;28;20024;-68
2022/07/21 02:20:21;;;;;;;37.33;24.88;;;18.70;99.90;;;;;;5053324;28;20025;-70
2022/07/21 02:22:47;;;;;;;34.33;22.85;;;18.60;99.90;;;;;;5033305;28;20039;-67
2022/07/21 02:25:13;;;;;;;37.58;22.98;;;18.60;99.90;;;;;;5052706;28;20025;-68
2022/07/21 02:27:40;;;;;;;38.30;25.63;;;18.60;99.90;;;;;;5052673;28;20102;-67
2022/07/21 02:30:06;;;;;;;33.22;23.42;;;18.60;99.90;;;;;;5052264;28;20037;-68
2022/07/21 02:32:31;;;;;;;46.00;26.88;;;18.60;99.90;;;;;;5051850;28;20510;-67
2022/07/21 02:34:57;;;;;;;41.90;24.83;;;18.60;99.90;;;;;;5052080;28;20071;-70
2022/07/21 02:37:22;;;;;;;36.35;25.35;;;18.60;99.90;;;;;;5051109;28;20060;-68
2022/07/21 02:39:48;;;;;;;34.88;24.98;;;18.60;99.90;;;;;;5047948;28;20041;-67
2022/07/21 02:42:14;;;;;;;38.22;22.33;;;18.60;99.90;;;;;;5051727;28;20079;-67
2022/07/21 02:44:39;;;;;;;33.33;22.33;;;18.60;99.90;;;;;;5050748;28;20056;-67
2022/07/21 02:47:05;;;;;;;30.25;21.05;;;18.60;99.90;;;;;;5052541;28;20537;-69
2022/07/21 02:49:31;;;;;;;32.40;20.40;;;18.60;99.90;;;;;;5051600;28;20395;-67
2022/07/21 02:51:56;;;;;;;30.33;20.85;;;18.60;99.90;;;;;;5052343;28;20028;-67
2022/07/21 02:54:22;;;;;;;31.42;20.85;;;18.60;99.90;;;;;;5050235;28;20036;-68
2022/07/21 02:56:47;;;;;;;35.17;22.27;;;18.60;99.90;;;;;;5068329;22;20063;-57
2022/07/21 02:59:13;;;;;;;29.80;20.25;;;18.60;99.90;;;;;;5054456;28;20122;-58
2022/07/21 03:01:38;;;;;;;36.22;22.88;;;18.60;99.90;;;;;;5051927;28;20032;-58
2022/07/21 03:04:04;;;;;;;31.45;20.83;;;18.60;99.90;;;;;;5028021;28;20053;-59
2022/07/21 03:06:29;;;;;;;31.92;22.85;;;18.50;99.90;;;;;;5050106;28;20683;-58
2022/07/21 03:08:55;;;;;;;33.10;21.83;;;18.50;99.90;;;;;;5049952;28;20037;-59
2022/07/21 03:11:20;;;;;;;40.22;23.55;;;18.40;99.90;;;;;;5051468;28;20025;-59
2022/07/21 03:13:46;;;;;;;38.17;25.60;;;18.40;99.90;;;;;;5053169;28;20025;-60
2022/07/21 03:16:12;;;;;;;31.50;22.33;;;18.30;99.90;;;;;;5053154;28;20082;-60
2022/07/21 03:18:37;;;;;;;37.28;25.13;;;18.40;99.90;;;;;;5035277;28;20036;-59
2022/07/21 03:21:03;;;;;;;39.95;24.58;;;18.40;99.90;;;;;;5050398;28;20494;-60
2022/07/21 03:23:29;;;;;;;38.67;25.45;;;18.40;99.90;;;;;;5051710;28;20027;-60
2022/07/21 03:25:54;;;;;;;40.72;25.10;;;18.40;99.90;;;;;;5053102;28;20056;-60
2022/07/21 03:28:20;;;;;;;38.75;25.83;;;18.40;99.90;;;;;;5050787;28;20029;-59
2022/07/21 03:30:45;;;;;;;36.45;25.10;;;18.40;99.90;;;;;;5017616;28;20023;-59
2022/07/21 03:33:11;;;;;;;40.22;25.80;;;18.40;99.90;;;;;;5050543;28;20044;-58
2022/07/21 03:35:37;;;;;;;39.65;24.95;;;18.40;99.90;;;;;;5050489;28;20028;-59
2022/07/21 03:38:04;;;;;;;38.33;24.48;;;18.40;99.90;;;;;;5034161;28;20451;-59
2022/07/21 03:40:34;;;;;;;41.88;26.00;;;18.30;99.90;;;;;;5050183;28;20431;-59
2022/07/21 03:43:02;;;;;;;34.38;22.55;;;18.40;99.90;;;;;;5050330;28;20033;-59
2022/07/21 03:45:30;;;;;;;37.40;24.80;;;18.40;99.90;;;;;;5052659;28;20108;-59
2022/07/21 03:48:00;;;;;;;33.03;22.25;;;18.40;99.90;;;;;;5049679;28;20036;-58
2022/07/21 03:50:26;;;;;;;35.38;21.27;;;18.40;99.90;;;;;;5049133;28;20438;-60
2022/07/21 03:52:52;;;;;;;32.47;21.08;;;18.40;99.90;;;;;;5052463;28;20025;-60
2022/07/21 03:55:18;;;;;;;30.70;20.10;;;18.40;99.90;;;;;;5034137;28;20033;-58
2022/07/21 03:57:48;;;;;;;32.45;21.95;;;18.40;99.90;;;;;;5050005;28;20033;-59
2022/07/21 04:00:18;;;;;;;38.78;22.77;;;18.30;99.90;;;;;;5052490;28;20040;-60
2022/07/21 04:02:45;;;;;;;32.97;21.50;;;18.30;99.90;;;;;;5051373;28;20063;-59
2022/07/21 04:05:12;;;;;;;28.00;22.13;;;18.30;99.90;;;;;;5050285;28;20032;-59
2022/07/21 04:07:40;;;;;;;29.90;20.33;;;18.30;99.90;;;;;;5051113;28;20445;-60
2022/07/21 04:10:08;;;;;;;31.85;21.45;;;18.30;99.90;;;;;;5034289;28;20028;-60
2022/07/21 04:12:33;;;;;;;30.77;20.80;;;18.30;99.90;;;;;;5026724;28;20028;-59
2022/07/21 04:14:59;;;;;;;33.28;19.92;;;18.30;99.90;;;;;;5063741;28;20028;-59
2022/07/21 04:17:24;;;;;;;30.52;21.38;;;18.30;99.90;;;;;;5048377;28;20029;-59
2022/07/21 04:19:50;;;;;;;32.83;21.35;;;18.20;99.90;;;;;;5046550;28;20037;-60
2022/07/21 04:22:16;;;;;;;29.23;19.00;;;18.30;99.90;;;;;;5049657;28;20029;-59
2022/07/21 04:24:41;;;;;;;28.00;19.63;;;18.30;99.90;;;;;;5051265;28;20390;-58
2022/07/21 04:27:07;;;;;;;31.00;20.13;;;18.30;99.90;;;;;;5050746;28;20029;-59
2022/07/21 04:29:33;;;;;;;27.48;20.70;;;18.40;99.90;;;;;;5049599;28;20184;-59
2022/07/21 04:31:59;;;;;;;29.77;19.08;;;18.40;99.90;;;;;;5048726;28;20088;-59
2022/07/21 04:34:25;;;;;;;29.13;19.55;;;18.40;99.90;;;;;;5048458;28;20438;-59
2022/07/21 04:36:50;;;;;;;23.10;16.90;;;18.40;99.90;;;;;;5028358;28;20033;-58
2022/07/21 04:39:16;;;;;;;24.90;16.58;;;18.50;99.90;;;;;;5051331;28;20025;-58
2022/07/21 04:41:41;;;;;;;27.90;18.20;;;18.50;99.90;;;;;;5048536;28;20031;-59
2022/07/21 04:44:07;;;;;;;25.65;18.73;;;18.40;99.90;;;;;;5049127;28;20021;-58
2022/07/21 04:46:32;;;;;;;29.70;19.65;;;18.50;99.90;;;;;;5049932;28;20063;-59
2022/07/21 04:48:58;;;;;;;22.67;17.30;;;18.40;99.90;;;;;;5050330;28;20139;-58
2022/07/21 04:51:24;;;;;;;21.42;16.25;;;18.40;99.90;;;;;;5013819;28;20037;-58
2022/07/21 04:53:49;;;;;;;24.70;16.40;;;18.40;99.90;;;;;;5048581;28;20040;-58
2022/07/21 04:56:15;;;;;;;21.48;16.38;;;18.40;99.90;;;;;;5051302;28;20351;-59
2022/07/21 04:58:40;;;;;;;21.38;16.27;;;18.50;99.90;;;;;;5048456;28;20029;-59
2022/07/21 05:01:06;;;;;;;26.00;16.73;;;18.50;99.90;;;;;;5050008;28;20116;-59
2022/07/21 05:03:31;;;;;;;21.33;15.20;;;18.50;99.90;;;;;;5051292;28;20025;-59
2022/07/21 05:05:57;;;;;;;19.52;15.63;;;18.60;99.90;;;;;;5016858;28;20039;-59
2022/07/21 05:08:22;;;;;;;22.38;16.35;;;18.70;99.90;;;;;;5050578;28;20032;-59
2022/07/21 05:10:48;;;;;;;20.08;15.85;;;18.70;99.90;;;;;;5049331;28;20066;-59
2022/07/21 05:13:14;;;;;;;22.15;14.77;;;18.80;99.90;;;;;;5051186;28;20017;-56
2022/07/21 05:15:39;;;;;;;22.20;15.32;;;18.70;99.90;;;;;;5048541;28;20098;-58
2022/07/21 05:18:07;;;;;;;19.67;15.52;;;18.80;99.90;;;;;;5050685;28;20158;-59
2022/07/21 05:20:33;;;;;;;13.80;11.13;;;18.80;99.90;;;;;;5050260;28;20028;-58
2022/07/21 05:22:58;;;;;;;17.17;12.75;;;18.80;99.90;;;;;;5049925;28;20378;-59
2022/07/21 05:25:24;;;;;;;17.75;12.27;;;18.70;99.90;;;;;;5050928;28;20529;-59
2022/07/21 05:27:50;;;;;;;21.42;12.45;;;18.70;99.90;;;;;;5050558;28;20570;-59
2022/07/21 05:30:15;;;;;;;18.23;13.00;;;18.60;99.90;;;;;;5051181;28;20437;-59
2022/07/21 05:32:41;;;;;;;19.63;13.82;;;18.60;99.90;;;;;;5050521;28;20017;-59
2022/07/21 05:35:10;;;;;;;20.75;14.82;;;18.60;99.90;;;;;;5051080;28;20067;-58
2022/07/21 05:37:40;;;;;;;22.85;14.00;;;18.60;99.90;;;;;;5041173;28;20052;-59
2022/07/21 05:40:07;;;;;;;20.15;13.98;;;18.60;99.90;;;;;;5050257;28;20033;-59
2022/07/21 05:42:33;;;;;;;23.83;15.07;;;18.60;99.90;;;;;;5048487;28;20028;-59
2022/07/21 05:44:58;;;;;;;21.20;14.77;;;18.60;99.90;;;;;;5050472;28;20021;-59
2022/07/21 05:47:24;;;;;;;24.30;16.42;;;18.60;99.90;;;;;;5048310;28;20027;-59
2022/07/21 05:49:50;;;;;;;24.40;16.50;;;18.60;99.90;;;;;;5048690;28;20524;-59
2022/07/21 05:52:15;;;;;;;19.88;15.15;;;18.60;99.90;;;;;;5052507;28;20040;-59
2022/07/21 05:54:41;;;;;;;27.15;16.20;;;18.60;99.90;;;;;;5054241;28;20033;-60
2022/07/21 05:57:06;;;;;;;17.63;12.30;;;18.60;99.90;;;;;;5047326;28;20029;-59
2022/07/21 05:59:32;;;;;;;16.55;12.18;;;18.50;99.90;;;;;;5054002;28;20044;-59
2022/07/21 06:01:58;;;;;;;15.82;11.15;;;18.50;99.90;;;;;;5049294;28;20360;-59
2022/07/21 06:04:24;;;;;;;13.57;9.95;;;18.50;99.90;;;;;;5054702;28;20082;-59
2022/07/21 06:06:49;;;;;;;12.20;9.15;;;18.40;99.90;;;;;;5052427;28;20021;-56
2022/07/21 06:09:15;;;;;;;10.65;8.50;;;18.30;99.90;;;;;;5049587;28;20033;-59
2022/07/21 06:11:41;;;;;;;13.60;9.13;;;18.30;99.90;;;;;;5052356;28;20048;-59
2022/07/21 06:14:06;;;;;;;12.13;8.30;;;18.30;99.90;;;;;;5054590;28;20075;-58
2022/07/21 06:16:32;;;;;;;12.25;8.88;;;18.30;99.90;;;;;;5052432;28;20104;-58
2022/07/21 06:18:57;;;;;;;8.55;6.88;;;18.30;99.90;;;;;;5053450;28;20560;-59
2022/07/21 06:21:23;;;;;;;15.70;6.53;;;18.30;99.90;;;;;;5049683;28;20040;-59
2022/07/21 06:23:48;;;;;;;7.60;4.47;;;18.40;99.90;;;;;;5052130;28;20029;-57
2022/07/21 06:26:14;;;;;;;8.27;4.75;;;18.40;99.90;;;;;;5052461;28;20029;-60
2022/07/21 06:28:41;;;;;;;4.80;3.92;;;18.40;99.90;;;;;;5052409;28;20076;-58
2022/07/21 06:31:06;;;;;;;2.72;2.17;;;18.40;99.90;;;;;;5052200;28;20032;-59
2022/07/21 06:33:32;;;;;;;2.83;2.38;;;18.30;99.90;;;;;;5052381;28;20025;-60
2022/07/21 06:35:58;;;;;;;3.55;2.60;;;18.30;99.90;;;;;;5050649;28;20475;-58
2022/07/21 06:38:23;;;;;;;3.33;2.67;;;18.40;99.90;;;;;;5052265;28;20036;-60
2022/07/21 06:40:49;;;;;;;5.32;3.20;;;18.30;99.90;;;;;;5043644;28;20498;-58
2022/07/21 06:43:14;;;;;;;4.47;4.07;;;18.20;99.90;;;;;;5052905;28;20028;-59
2022/07/21 06:45:40;;;;;;;5.63;4.40;;;18.30;99.90;;;;;;5052297;28;20513;-59
2022/07/21 06:48:07;;;;;;;13.18;5.22;;;18.20;99.90;;;;;;5053120;28;20468;-59
2022/07/21 06:50:33;;;;;;;9.40;6.05;;;18.30;99.90;;;;;;5050832;28;20458;-59
2022/07/21 06:52:59;;;;;;;11.00;5.75;;;18.30;99.90;;;;;;5052977;28;20101;-59
2022/07/21 06:55:25;;;;;;;7.82;6.57;;;18.30;99.90;;;;;;5050859;28;20029;-59
2022/07/21 06:57:51;;;;;;;9.35;7.32;;;18.40;99.90;;;;;;5053119;28;20039;-59
2022/07/21 07:00:17;;;;;;;11.85;6.35;;;18.40;99.90;;;;;;5052298;28;20656;-58
2022/07/21 07:02:43;;;;;;;10.27;6.85;;;18.40;99.90;;;;;;5052395;28;20460;-58
2022/07/21 07:05:08;;;;;;;8.02;6.47;;;18.60;99.90;;;;;;5049996;28;20052;-58
2022/07/21 07:07:34;;;;;;;8.63;6.80;;;18.50;99.90;;;;;;5051488;28;20044;-58
2022/07/21 07:10:00;;;;;;;11.15;7.63;;;18.60;99.90;;;;;;5053665;28;20083;-60
2022/07/21 07:12:25;;;;;;;11.77;7.60;;;18.80;99.90;;;;;;5050542;28;20013;-59
2022/07/21 07:14:51;;;;;;;11.43;7.50;;;18.80;99.90;;;;;;5053491;28;20025;-60
2022/07/21 07:17:20;;;;;;;13.25;8.40;;;18.90;99.90;;;;;;5051836;28;20052;-60
2022/07/21 07:19:49;;;;;;;11.10;8.50;;;19.00;99.90;;;;;;5052275;28;20040;-59
2022/07/21 07:22:15;;;;;;;12.95;7.88;;;19.10;99.90;;;;;;5052513;28;20012;-60
2022/07/21 07:24:40;;;;;;;13.45;7.72;;;19.10;99.90;;;;;;5052115;28;20368;-59
2022/07/21 07:27:06;;;;;;;10.30;7.20;;;19.10;99.90;;;;;;5051268;28;20479;-59
2022/07/21 07:29:32;;;;;;;8.80;7.90;;;19.20;99.90;;;;;;5052460;28;20024;-58
2022/07/21 07:31:58;;;;;;;10.40;7.25;;;19.30;99.90;;;;;;5047398;28;20021;-60
2022/07/21 07:34:24;;;;;;;11.73;7.90;;;19.40;99.90;;;;;;5051907;28;20028;-59
2022/07/21 07:36:50;;;;;;;9.10;7.18;;;19.50;99.90;;;;;;5051988;28;20409;-59
2022/07/21 07:39:15;;;;;;;9.75;6.85;;;19.60;99.90;;;;;;5052795;28;20127;-58
2022/07/21 07:41:42;;;;;;;8.98;6.65;;;19.70;99.90;;;;;;5045655;28;20025;-58
2022/07/21 07:44:07;;;;;;;9.32;6.43;;;19.70;99.90;;;;;;5050427;28;20029;-59
2022/07/21 07:46:33;;;;;;;12.52;6.78;;;19.80;99.90;;;;;;5050897;28;20025;-59
2022/07/21 07:48:59;;;;;;;9.15;7.15;;;19.90;99.90;;;;;;5047760;28;20064;-59
2022/07/21 07:51:25;;;;;;;9.57;7.35;;;20.10;99.90;;;;;;5051939;28;20347;-59
2022/07/21 07:53:50;;;;;;;7.43;6.25;;;20.20;99.90;;;;;;5048471;28;20029;-59
2022/07/21 07:56:16;;;;;;;10.13;6.88;;;20.40;99.90;;;;;;5050521;28;20021;-59
2022/07/21 07:58:41;;;;;;;10.52;6.95;;;20.50;99.90;;;;;;5051757;28;20467;-58
2022/07/21 08:01:07;;;;;;;9.00;6.55;;;20.50;99.90;;;;;;5052027;28;20044;-56
2022/07/21 08:03:33;;;;;;;12.63;6.85;;;20.60;99.90;;;;;;5052304;28;20036;-58
2022/07/21 08:06:06;;;;;;;10.52;6.72;;;20.70;99.90;;;;;;5046393;28;20037;-57
2022/07/21 08:08:32;;;;;;;6.78;5.90;;;20.80;99.90;;;;;;5064703;28;20025;-60
2022/07/21 08:10:57;;;;;;;10.00;6.30;;;20.90;99.90;;;;;;5050739;28;20024;-59
2022/07/21 08:13:23;;;;;;;8.70;6.18;;;20.90;99.90;;;;;;5050975;28;20053;-60
2022/07/21 08:15:49;;;;;;;11.63;6.68;;;20.90;99.90;;;;;;5051105;28;20028;-58
2022/07/21 08:18:15;;;;;;;10.18;6.30;;;20.90;99.90;;;;;;5052185;28;20107;-57
2022/07/21 08:20:42;;;;;;;7.95;6.20;;;21.00;99.90;;;;;;5052223;28;20032;-58
2022/07/21 08:23:07;;;;;;;7.28;5.95;;;21.10;99.90;;;;;;5050352;28;20032;-59
2022/07/21 08:25:33;;;;;;;9.50;6.00;;;21.20;99.90;;;;;;5050329;28;20024;-58
2022/07/21 08:27:59;;;;;;;10.20;6.38;;;21.20;99.90;;;;;;5050737;28;20099;-60
2022/07/21 08:30:25;;;;;;;12.43;6.28;;;21.30;99.90;;;;;;5052157;28;20598;-58
2022/07/21 08:32:50;;;;;;;6.07;4.97;;;21.40;99.90;;;;;;5048994;28;20035;-59
2022/07/21 08:35:16;;;;;;;8.25;6.30;;;21.30;99.90;;;;;;5048103;28;20111;-59
2022/07/21 08:37:42;;;;;;;10.90;5.95;;;21.40;99.90;;;;;;5047897;28;20020;-59
2022/07/21 08:40:10;;;;;;;10.40;6.30;;;21.40;99.90;;;;;;5046988;28;20018;-59
2022/07/21 08:42:36;;;;;;;10.07;5.80;;;21.60;99.90;;;;;;5050791;28;20382;-59
2022/07/21 08:45:03;;;;;;;8.95;6.10;;;21.70;99.90;;;;;;5051719;28;20028;-57
2022/07/21 08:47:29;;;;;;;10.73;6.07;;;21.70;99.90;;;;;;5051595;28;20501;-58
2022/07/21 08:49:55;;;;;;;8.80;5.95;;;21.90;99.90;;;;;;5046981;28;20027;-60
2022/07/21 08:52:20;;;;;;;11.70;6.47;;;22.10;99.90;;;;;;5051422;28;20108;-59
2022/07/21 08:54:46;;;;;;;10.35;7.55;;;22.30;99.90;;;;;;5051487;28;20028;-59
2022/07/21 08:57:12;;;;;;;11.40;6.50;;;22.00;99.90;;;;;;5086507;22;20497;-66
2022/07/21 08:59:37;;;;;;;9.43;6.38;;;22.00;99.90;;;;;;5068398;28;20387;-65
2022/07/21 09:02:03;;;;;;;9.02;6.15;;;22.10;99.90;;;;;;5068779;28;20059;-66
2022/07/21 09:04:33;;;;;;;11.73;7.07;;;22.10;99.90;;;;;;5070151;28;20044;-65
2022/07/21 09:07:01;;;;;;;8.77;5.68;;;22.10;99.90;;;;;;5069650;28;20484;-67
2022/07/21 09:09:28;;;;;;;8.73;5.53;;;22.20;99.90;;;;;;5067572;28;20016;-66
2022/07/21 09:11:55;;;;;;;9.35;5.72;;;22.30;99.90;;;;;;5067098;28;20070;-66
2022/07/21 09:14:24;;;;;;;10.20;6.05;;;22.40;99.90;;;;;;5069498;28;20348;-69
2022/07/21 09:16:52;;;;;;;7.97;5.95;;;22.60;99.90;;;;;;5069292;28;20025;-66
2022/07/21 09:19:35;;;;;;;10.50;6.05;;;22.60;99.90;;;;;;5068643;28;20036;-66
2022/07/21 09:22:03;;;;;;;8.02;5.82;;;22.70;99.90;;;;;;5070156;28;20036;-66
2022/07/21 09:24:34;;;;;;;10.40;6.43;;;22.80;99.90;;;;;;5068464;28;20017;-66
2022/07/21 09:27:07;;;;;;;8.90;5.97;;;22.70;99.90;;;;;;5060313;28;20029;-68
2022/07/21 09:29:44;;;;;;;7.00;5.72;;;22.80;99.90;;;;;;5062722;28;20099;-67
2022/07/21 09:32:12;;;;;;;8.27;5.35;;;22.80;99.90;;;;;;5069445;28;20020;-66
2022/07/21 09:34:38;;;;;;;7.93;5.35;;;22.70;99.90;;;;;;5069773;28;20024;-68
2022/07/21 09:37:06;;;;;;;9.05;5.75;;;22.60;99.90;;;;;;5069155;28;20534;-65
2022/07/21 09:39:52;;;;;;;6.70;5.20;;;22.60;99.90;;;;;;5069637;28;20025;-66
2022/07/21 09:42:24;;;;;;;8.68;5.22;;;22.60;99.90;;;;;;5066218;28;20028;-69
2022/07/21 09:44:53;;;;;;;6.78;5.15;;;22.60;99.90;;;;;;5069593;28;20047;-67
2022/07/21 09:47:21;;;;;;;7.28;5.13;;;22.70;99.90;;;;;;5069575;28;20469;-68
2022/07/21 09:49:47;;;;;;;6.70;4.88;;;22.80;99.90;;;;;;5066671;28;20116;-66
2022/07/21 09:52:18;;;;;;;7.00;4.97;;;23.10;99.90;;;;;;5069371;28;20103;-66
2022/07/21 09:54:44;;;;;;;6.35;4.82;;;22.90;99.90;;;;;;5068708;28;20028;-66
2022/07/21 09:57:11;;;;;;;6.85;5.57;;;22.90;99.90;;;;;;5067981;28;20468;-67
2022/07/21 09:59:38;;;;;;;8.57;5.47;;;22.70;99.90;;;;;;5067059;28;20116;-68
2022/07/21 10:02:04;;;;;;;6.45;5.18;;;22.80;99.90;;;;;;5063155;28;20585;-68
2022/07/21 10:04:31;;;;;;;8.13;5.07;;;22.90;99.90;;;;;;5064393;28;20040;-68
2022/07/21 10:06:57;;;;;;;6.72;4.93;;;23.00;99.90;;;;;;5068371;28;20451;-66
2022/07/21 10:09:23;;;;;;;9.93;5.68;;;23.10;99.90;;;;;;5068062;28;20031;-68
2022/07/21 10:11:49;;;;;;;11.13;6.13;;;23.10;99.90;;;;;;5067973;28;20024;-72
2022/07/21 10:14:15;;;;;;;8.45;5.35;;;22.90;99.90;;;;;;5067206;28;20058;-69
2022/07/21 10:16:40;;;;;;;7.10;4.40;;;22.80;99.90;;;;;;5066706;28;20025;-69
2022/07/21 10:19:14;;;;;;;5.88;4.38;;;22.80;99.90;;;;;;5067577;28;20025;-68
2022/07/21 10:21:56;;;;;;;5.85;4.35;;;23.00;99.90;;;;;;5062222;28;20054;-67
2022/07/21 10:24:25;;;;;;;6.07;4.32;;;23.10;99.90;;;;;;5067409;28;20021;-72
2022/07/21 10:27:04;;;;;;;6.82;4.28;;;23.10;99.90;;;;;;5065460;28;20017;-67
2022/07/21 10:29:59;;;;;;;10.65;4.03;;;23.20;99.90;;;;;;5066620;28;20100;-68
2022/07/21 10:32:27;;;;;;;6.82;4.55;;;23.20;99.90;;;;;;5062991;28;20108;-67
2022/07/21 10:34:58;;;;;;;6.90;3.95;;;23.10;99.90;;;;;;5068696;28;20114;-67
2022/07/21 10:37:38;;;;;;;8.27;4.85;;;22.80;99.90;;;;;;5068541;28;20510;-66
2022/07/21 10:40:25;;;;;;;7.10;4.70;;;22.80;99.90;;;;;;5071382;28;20025;-69
2022/07/21 10:42:59;;;;;;;7.85;4.50;;;22.70;99.90;;;;;;5060267;28;20386;-67
2022/07/21 10:45:32;;;;;;;;;;;22.70;99.90;;;;;;5069827;28;20111;-68
2022/07/21 10:47:59;;;;;;;7.75;5.00;;;22.80;99.90;;;;;;5071604;28;19913;-68
2022/07/21 10:50:31;;;;;;;5.28;4.40;;;22.80;99.90;;;;;;5067930;28;20051;-63
2022/07/21 10:52:57;;;;;;;6.25;4.43;;;22.80;99.90;;;;;;5068297;28;20016;-63
2022/07/21 10:55:28;;;;;;;7.82;4.95;;;22.70;99.90;;;;;;5071323;28;20032;-64
2022/07/21 10:58:15;;;;;;;10.80;5.30;;;22.50;99.90;;;;;;5065779;28;20021;-64
2022/07/21 11:01:04;;;;;;;6.43;4.78;;;22.30;99.90;;;;;;5066180;28;20043;-63
2022/07/21 11:03:38;;;;;;;8.23;5.20;;;22.30;99.90;;;;;;5063595;28;20039;-64
2022/07/21 11:06:06;;;;;;;;;;;22.30;99.90;;;;;;5070979;28;20028;-64
2022/07/21 11:08:34;;;;;;;9.68;5.65;;;22.30;99.90;;;;;;5070719;28;19904;-64
2022/07/21 11:11:20;;;;;;;9.63;5.85;;;22.30;99.90;;;;;;5071999;28;20017;-65
2022/07/21 11:14:01;;;;;;;7.97;5.63;;;22.20;99.90;;;;;;5072241;28;20024;-64
2022/07/21 11:17:02;;;;;;;11.85;5.68;;;22.30;99.90;;;;;;5070748;28;20433;-64
2022/07/21 11:19:40;;;;;;;9.48;6.00;;;22.10;99.90;;;;;;5070230;28;20042;-64
2022/07/21 11:22:10;;;;;;;10.32;6.95;;;22.10;99.90;;;;;;5070348;28;20035;-63
2022/07/21 11:24:36;;;;;;;10.63;7.18;;;21.90;99.90;;;;;;5063866;28;20070;-64
2022/07/21 11:27:12;;;;;;;14.07;8.10;;;21.80;99.90;;;;;;5070575;28;20025;-64
2022/07/21 11:29:40;;;;;;;10.60;7.55;;;21.70;99.90;;;;;;5068245;28;20046;-63
2022/07/21 11:32:07;;;;;;;11.68;7.63;;;21.50;99.90;;;;;;5071152;28;20020;-64
2022/07/21 11:34:48;;;;;;;11.80;8.48;;;21.30;99.90;;;;;;5070863;28;20017;-64
2022/07/21 11:37:17;;;;;;;14.55;8.82;;;20.90;99.90;;;;;;5065048;28;20113;-63
2022/07/21 11:39:43;;;;;;;18.95;10.65;;;20.60;99.90;;;;;;5068411;28;20012;-63
2022/07/21 11:42:12;;;;;;;21.10;11.15;;;20.40;99.90;;;;;;5070771;28;20028;-62
2022/07/21 11:44:39;;;;;;;18.17;12.13;;;20.20;99.90;;;;;;5071200;28;20063;-63
2022/07/21 11:47:06;;;;;;;18.30;11.10;;;20.00;99.90;;;;;;5067914;28;20048;-64
2022/07/21 11:49:33;;;;;;;17.38;11.88;;;19.80;99.90;;;;;;5069518;28;20027;-63
2022/07/21 11:52:06;;;;;;;18.90;12.98;;;19.70;99.90;;;;;;5070235;28;20017;-64
2022/07/21 11:54:38;;;;;;;17.10;12.27;;;19.60;99.90;;;;;;5070800;28;20436;-64
2022/07/21 11:57:06;;;;;;;23.92;13.98;;;19.40;99.90;;;;;;5069935;28;20028;-64
2022/07/21 11:59:34;;;;;;;23.00;15.57;;;19.30;99.90;;;;;;5070735;28;20016;-64
2022/07/21 12:02:08;;;;;;;21.20;14.70;;;19.20;99.90;;;;;;5069784;28;20033;-63
2022/07/21 12:04:41;;;;;;;23.45;16.52;;;19.20;99.90;;;;;;5070644;28;20494;-63
2022/07/21 12:07:31;;;;;;;24.95;15.88;;;19.20;99.90;;;;;;5070353;28;20025;-63
2022/07/21 12:10:03;;;;;;;23.73;16.52;;;19.10;99.90;;;;;;5070438;28;20048;-65
2022/07/21 12:12:28;;;;;;;28.35;17.95;;;18.90;99.90;;;;;;5069391;28;20020;-64
2022/07/21 12:14:54;;;;;;;25.88;18.75;;;18.90;99.90;;;;;;5069322;28;20410;-64
2022/07/21 12:17:37;;;;;;;26.85;19.33;;;19.00;99.90;;;;;;5070452;28;20039;-64
2022/07/21 12:20:05;;;;;;;27.35;18.92;;;19.00;99.90;;;;;;5070185;28;20125;-65
2022/07/21 12:22:44;;;;;;;32.28;21.02;;;19.10;99.90;;;;;;5069589;28;20024;-64
2022/07/21 12:25:13;;;;;;;31.00;19.48;;;19.20;99.90;;;;;;5070135;28;20409;-64
2022/07/21 12:27:41;;;;;;;29.55;19.42;;;19.10;99.90;;;;;;5070293;28;20447;-65
2022/07/21 12:30:09;;;;;;;28.25;19.40;;;19.10;99.90;;;;;;5070060;28;20051;-64
2022/07/21 12:32:52;;;;;;;34.15;20.23;;;19.10;99.90;;;;;;5070371;28;20049;-66
2022/07/21 12:35:26;;;;;;;33.58;21.45;;;19.10;99.90;;;;;;5070608;28;20095;-65
2022/07/21 12:38:00;;;;;;;29.35;21.67;;;19.10;99.90;;;;;;5069581;28;20051;-65
2022/07/21 12:40:26;;;;;;;36.25;23.42;;;19.10;99.90;;;;;;5069468;28;20127;-65